Ville De Bordeaux — FZCE — position and weather

sailwx.info

Track history (hours):
 
Tides and Currents Weather Stations Pressure Air Temp Water Temp Dewpoint Dewpoint Depression Visibility Wind Speed Wind Dir Waves Ship Positions

Ville De Bordeaux

Last reported at 2015-Jan-29 06:33 UTC. Time now 2015-Jan-29 08:18 UTC.
Position N 38°46' E 008°49'.

Length 150 m; beam 24 m.

Type: Ship. MMSI: 228084000.

Date/timePositionNaut miles runAvg speedWind from/ knotsBaromVisibWave heightAir tempDewpointWater temp
2015-Jan-29 06:33N 38°46' E 008°49'2019.6
2015-Jan-29 05:33N 38°52' E 009°13'23419.5
2015-Jan-28 17:31N 40°35' E 013°46'1920.1
2015-Jan-28 16:33N 40°45' E 014°08'8 2.3
2015-Jan-28 13:03N 40°50' E 014°17'5 7.7
2015-Jan-28 12:23N 40°46' E 014°12'810.0
2015-Jan-28 11:32N 40°42' E 014°02'13 9.9
2015-Jan-28 10:17N 40°36' E 013°48'8 9.5
2015-Jan-28 09:24N 40°31' E 013°39'21914.7
2015-Jan-27 18:33N 38°55' E 009°23'1615.8
2015-Jan-27 17:33N 38°49' E 009°04'4017.9
2015-Jan-27 15:19N 38°38' E 008°15'66117.8
2015-Jan-26 02:11N 35°60' W 005°12'1318.1
2015-Jan-26 01:29N 35°57' W 005°27'17316.6
2015-Jan-25 15:04N 36°28' W 008°58'5315.1
2015-Jan-25 11:33N 37°09' W 009°41'1916.6
2015-Jan-25 10:24N 37°27' W 009°47'1416.9
2015-Jan-25 09:33N 37°42' W 009°50'1711.8
2015-Jan-25 08:08N 37°58' W 009°54'810.6
2015-Jan-25 07:25N 38°05' W 009°56'910.5
2015-Jan-25 06:33N 38°14' W 009°59'1110.6
2015-Jan-25 05:33N 38°25' W 010°01'1111.1
2015-Jan-25 04:33N 38°36' W 010°04'1111.1
2015-Jan-25 03:32N 38°47' W 010°06'  
2015-Jan-20 14:32N 39°09' W 009°51'1514.0
2015-Jan-20 13:27N 38°54' W 009°52'1513.7
2015-Jan-20 12:20N 38°38' W 009°51'1113.5
2015-Jan-20 11:33N 38°28' W 009°47'  
Track history (hours):
 
Tides and Currents Weather Stations Pressure Air Temp Water Temp Dewpoint Dewpoint Depression Visibility Wind Speed Wind Dir Waves Ship Positions

Ville De Bordeaux

Last reported at 2015-Jan-29 06:33 UTC. Time now 2015-Jan-29 08:18 UTC.
Position N 38°46' E 008°49'.

Length 150 m; beam 24 m.

Type: Ship. MMSI: 228084000.

Date/timePositionNaut miles runAvg speedWind from/ knotsBaromVisibWave heightAir tempDewpointWater temp
2015-Jan-29 06:33N 38°46' E 008°49'2019.6
2015-Jan-29 05:33N 38°52' E 009°13'23419.5
2015-Jan-28 17:31N 40°35' E 013°46'1920.1
2015-Jan-28 16:33N 40°45' E 014°08'8 2.3
2015-Jan-28 13:03N 40°50' E 014°17'5 7.7
2015-Jan-28 12:23N 40°46' E 014°12'810.0
2015-Jan-28 11:32N 40°42' E 014°02'13 9.9
2015-Jan-28 10:17N 40°36' E 013°48'8 9.5
2015-Jan-28 09:24N 40°31' E 013°39'21914.7
2015-Jan-27 18:33N 38°55' E 009°23'1615.8
2015-Jan-27 17:33N 38°49' E 009°04'4017.9
2015-Jan-27 15:19N 38°38' E 008°15'66117.8
2015-Jan-26 02:11N 35°60' W 005°12'1318.1
2015-Jan-26 01:29N 35°57' W 005°27'17316.6
2015-Jan-25 15:04N 36°28' W 008°58'5315.1
2015-Jan-25 11:33N 37°09' W 009°41'1916.6
2015-Jan-25 10:24N 37°27' W 009°47'1416.9
2015-Jan-25 09:33N 37°42' W 009°50'1711.8
2015-Jan-25 08:08N 37°58' W 009°54'810.6
2015-Jan-25 07:25N 38°05' W 009°56'910.5
2015-Jan-25 06:33N 38°14' W 009°59'1110.6
2015-Jan-25 05:33N 38°25' W 010°01'1111.1
2015-Jan-25 04:33N 38°36' W 010°04'1111.1
2015-Jan-25 03:32N 38°47' W 010°06'  
2015-Jan-20 14:32N 39°09' W 009°51'1514.0
2015-Jan-20 13:27N 38°54' W 009°52'1513.7
2015-Jan-20 12:20N 38°38' W 009°51'1113.5
2015-Jan-20 11:33N 38°28' W 009°47'  

Dump ship's entire track history